Latest Weather Observations for Goulburn Airport

IDN60801

Issued at 9:22 pm EST Thursday 13 June 2024 (issued every 10 minutes, with the page automatically refreshed every 10 minutes)

About weather observations | Map of weather stations | Latest weather observations for NSW | Other Formats
Station Details ID: 070330 Name: GOULBURN AIRPORT AWS Lat: -34.81 Lon: 149.73 Height: 640.0 m
Data from the previous 72 hours. | See also: Recent months at Goulburn Airport
Date/Time
EST
Temp
°C
App
Temp
°C
Dew
Point
°C
Rel
Hum
%
Delta-T
°C
Wind Press
QNH
hPa
Press
MSL
hPa
Rain since
9am
mm
Dir  Spd
km/h
Gust
km/h
Spd
kts
Gust
kts
13/09:00pm 1.2 -0.6 1.1 99 0.0 CALM 0 0 0 0 1021.4 1022.3 0.0
13/08:30pm 1.4 -0.4 1.3 99 0.0 CALM 0 0 0 0 1021.6 1022.4 0.0
13/08:00pm 1.2 -1.8 1.1 99 0.0 ESE 6 6 3 3 1021.4 1022.3 0.0
13/07:30pm 1.4 -1.1 1.3 99 0.0 ESE 4 7 2 4 1021.6 1022.4 0.0
13/07:00pm 2.2 0.5 2.1 99 0.0 CALM 0 0 0 0 1021.2 1022.1 0.0
13/06:30pm 2.0 0.1 0.8 92 0.5 CALM 0 2 0 1 1021.1 1022.0 0.0
13/06:00pm 3.8 1.1 2.9 94 0.4 NW 6 6 3 3 1020.5 1021.3 0.0
13/05:30pm 3.6 1.5 1.8 88 0.7 NW 2 7 1 4 1020.5 1021.3 0.0
13/05:00pm 6.1 4.0 2.0 75 1.7 NW 2 6 1 3 1020.0 1020.8 0.0
13/04:30pm 8.3 5.5 2.3 66 2.6 NW 6 9 3 5 1020.2 1021.0 0.0
13/04:00pm 9.2 6.0 3.0 65 2.7 NW 9 13 5 7 1020.3 1021.1 0.0
13/03:30pm 8.5 6.2 2.7 67 2.5 W 4 9 2 5 1020.3 1021.1 0.0
13/03:07pm 8.6 7.0 2.2 64 2.8 CALM 0 0 0 0 1020.0 1020.8 0.0
13/03:00pm 8.6 6.6 2.4 65 2.7 SSW 2 7 1 4 1019.9 1020.7 0.0
13/02:50pm 8.6 5.8 2.2 64 2.8 S 6 9 3 5 1020.0 1020.8 0.0
13/02:30pm 8.8 6.1 2.4 64 2.8 ESE 6 7 3 4 1020.4 1021.2 0.0
13/02:00pm 9.0 6.1 2.8 65 2.7 S 7 9 4 5 1020.3 1021.1 0.0
13/01:30pm 8.5 6.9 2.7 67 2.5 CALM 0 0 0 0 1019.9 1020.7 0.0
13/01:00pm 8.4 5.5 2.4 66 2.6 SSW 7 9 4 5 1019.9 1020.7 0.0
13/12:30pm 8.1 4.7 2.1 66 2.6 S 9 15 5 8 1020.5 1021.3 0.0
13/12:00pm 8.1 4.7 2.1 66 2.6 S 9 13 5 7 1020.5 1021.3 0.0
13/11:30am 8.1 5.5 3.2 71 2.2 SSW 6 11 3 6 1020.9 1021.8 0.0
13/11:00am 7.2 5.2 2.3 71 2.1 WNW 2 6 1 3 1021.1 1022.0 0.0
13/10:30am 5.8 3.3 1.5 74 1.8 NW 4 7 2 4 1021.7 1022.5 0.0
13/10:00am 5.0 2.2 2.0 81 1.2 NNW 6 9 3 5 1021.8 1022.6 0.0
13/09:30am 3.6 -0.2 1.5 86 0.9 NNW 11 13 6 7 1021.9 1022.7 0.0
13/09:00am 1.5 -1.1 0.8 95 0.3 NNE 4 7 2 4 1021.6 1022.4 0.0
13/08:30am -0.5 -3.4 -1.2 95 0.2 NE 4 7 2 4 1021.1 1022.0 0.0
13/08:00am -0.7 -3.6 -1.0 98 0.1 NW 4 11 2 6 1021.1 1022.0 0.0
13/07:30am -4.1 -8.0 -4.4 98 -0.1 ESE 7 9 4 5 1020.7 1021.6 0.0
13/07:00am -4.6 -7.2 -4.9 98 -0.1 CALM 0 0 0 0 1020.4 1021.2 0.0
13/06:30am -4.6 -7.2 -4.9 98 -0.1 CALM 0 0 0 0 1021.0 1021.9 0.0
13/06:00am -4.8 -7.4 -5.2 97 -0.1 CALM 0 0 0 0 1021.2 1022.1 0.0
13/05:30am -4.7 -7.3 -5.1 97 -0.1 CALM 0 0 0 0 1020.7 1021.6 0.0
13/05:00am -4.3 -6.9 -4.6 98 -0.1 CALM 0 0 0 0 1020.5 1021.3 0.0
13/04:30am -4.3 -7.2 -4.6 98 -0.1 ESE 2 6 1 3 1019.3 1020.1 0.0
13/04:00am -4.6 -7.6 -4.9 98 -0.1 ESE 2 6 1 3 1019.3 1020.1 0.0
13/03:30am -3.8 -6.3 -4.1 98 -0.1 CALM 0 0 0 0 1019.4 1020.3 0.0
13/03:00am -3.6 -6.1 -3.9 98 -0.1 CALM 0 0 0 0 1019.7 1020.6 0.0
13/02:30am -4.1 -6.7 -4.5 97 0.0 CALM 0 4 0 2 1019.9 1020.7 0.0
13/02:00am -3.2 -5.6 -3.5 98 0.0 CALM 0 6 0 3 1019.4 1020.3 0.0
13/01:30am -3.6 -6.1 -4.1 96 0.0 CALM 0 0 0 0 1019.5 1020.4 0.0
13/01:00am -3.2 -6.8 -3.5 98 0.0 ESE 6 7 3 4 1019.4 1020.3 0.0
13/12:30am -3.4 -7.2 -4.1 95 0.1 ESE 7 9 4 5 1019.7 1020.6 0.0
13/12:00am -2.6 -6.2 -3.3 95 0.1 ESE 6 7 3 4 1019.7 1020.6 0.0
 
Date/Time
EST
Temp
°C
App
Temp
°C
Dew
Point
°C
Rel
Hum
%
Delta-T
°C
Wind Press
QNH
hPa
Press
MSL
hPa
Rain since
9am
mm
Dir  Spd
km/h
Gust
km/h
Spd
kts
Gust
kts
12/11:30pm -2.7 -6.3 -3.7 93 0.2 ESE 6 7 3 4 1019.6 1020.5 0.0
12/11:00pm -2.1 -5.6 -2.8 95 0.1 ESE 6 7 3 4 1019.5 1020.4 0.0
12/10:30pm -1.5 -4.9 -2.3 94 0.2 SSE 6 9 3 5 1019.6 1020.5 0.0
12/10:00pm -2.0 -6.1 -3.0 93 0.3 S 9 11 5 6 1019.4 1020.3 0.0
12/09:30pm -0.9 -4.3 -2.0 92 0.3 ESE 6 9 3 5 1019.2 1020.0 0.0
12/09:00pm -0.8 -4.4 -2.1 91 0.4 ESE 7 11 4 6 1018.9 1019.7 0.0
12/08:30pm 0.1 -2.1 -1.2 91 0.5 CALM 0 0 0 0 1018.6 1019.4 0.0
12/08:00pm 0.8 -1.8 -1.6 84 0.9 ESE 2 7 1 4 1018.0 1018.9 0.0
12/07:30pm 1.4 -1.4 -0.4 88 0.7 ESE 4 7 2 4 1017.6 1018.4 0.0
12/07:00pm 1.3 -1.5 -0.2 90 0.6 ESE 4 9 2 5 1017.2 1018.0 0.0
12/06:30pm 2.7 -0.8 -1.6 73 1.6 ESE 7 7 4 4 1016.6 1017.3 0.0
12/06:00pm 4.7 0.9 1.6 80 1.3 WSW 11 15 6 8 1016.0 1016.8 0.0
12/05:30pm 6.1 2.0 -0.2 64 2.5 SW 11 13 6 7 1015.5 1016.3 0.0
12/05:00pm 8.0 2.5 -1.8 50 3.8 SSW 17 26 9 14 1015.1 1015.8 0.0
12/04:30pm 7.1 3.3 3.9 80 1.4 WSW 13 17 7 9 1014.4 1015.2 0.0
12/04:00pm 7.7 4.3 3.9 77 1.7 SW 11 13 6 7 1013.6 1014.3 0.0
12/03:30pm 8.4 4.2 4.0 74 2.0 SW 15 20 8 11 1012.9 1013.7 0.0
12/03:00pm 9.1 4.2 4.1 71 2.3 SW 19 24 10 13 1012.3 1013.0 0.0
12/02:30pm 10.3 5.9 4.5 67 2.7 SW 17 24 9 13 1012.0 1012.7 0.0
12/02:00pm 9.5 4.3 5.3 75 2.0 SW 22 28 12 15 1011.3 1012.0 0.0
12/01:30pm 7.8 1.4 5.3 84 1.2 S 28 39 15 21 1010.8 1011.5 0.0
12/01:12pm 10.7 2.7 4.0 63 3.1 WSW 35 54 19 29 1010.4 1011.1 0.0
12/01:00pm 11.2 3.7 4.7 64 3.1 W 33 48 18 26 1010.0 1010.6 0.0
12/12:30pm 10.7 2.2 5.0 68 2.7 W 39 57 21 31 1009.9 1010.5 0.0
12/12:07pm 10.4 1.1 5.0 69 2.5 W 43 61 23 33 1009.6 1010.3 0.0
12/12:00pm 10.1 1.2 5.3 72 2.3 W 41 57 22 31 1009.9 1010.5 0.0
12/11:33am 9.9 1.6 6.1 77 1.8 W 39 57 21 31 1009.9 1010.5 0.0
12/11:30am 9.6 0.8 5.4 75 2.0 W 41 57 22 31 1009.9 1010.5 0.0
12/11:00am 9.3 -0.1 5.5 77 1.8 W 44 56 24 30 1009.9 1010.5 0.0
12/10:33am 9.5 2.3 5.7 77 1.8 W 33 54 18 29 1010.0 1010.6 0.0
12/10:30am 9.8 2.6 6.0 77 1.8 W 33 50 18 27 1010.1 1010.7 0.0
12/10:00am 9.4 -0.3 5.8 78 1.7 W 46 67 25 36 1009.0 1009.7 0.0
12/09:30am 9.2 -1.3 5.8 79 1.6 WNW 50 69 27 37 1008.9 1009.6 0.0
12/09:03am 8.8 -2.2 5.2 78 1.7 W 52 70 28 38 1009.3 1010.0 0.0
12/09:00am 8.8 -2.0 5.9 82 1.4 W 52 65 28 35 1009.4 1010.1 1.2
12/08:30am 8.4 -0.7 5.7 83 1.3 W 43 61 23 33 1009.3 1010.0 1.2
12/08:00am 8.2 -1.6 5.1 81 1.4 W 46 69 25 37 1008.5 1009.1 1.2
12/07:30am 8.0 -1.8 5.5 84 1.2 WNW 46 67 25 36 1008.7 1009.3 1.2
12/07:13am 7.9 -1.3 5.5 85 1.1 WNW 43 61 23 33 1008.8 1009.5 1.2
12/07:00am 7.9 -1.3 5.4 84 1.2 WNW 43 59 23 32 1008.8 1009.5 1.2
12/06:33am 7.9 -1.9 5.4 84 1.2 WNW 46 67 25 36 1008.5 1009.1 1.2
12/06:30am 7.8 -2.0 5.4 85 1.1 WNW 46 61 25 33 1008.6 1009.2 1.2
12/06:00am 8.0 -1.8 5.5 84 1.2 W 46 72 25 39 1008.6 1009.2 1.2
12/05:35am 8.1 -1.2 6.1 87 0.9 W 44 63 24 34 1008.1 1008.8 1.2
12/05:30am 8.3 -1.3 6.1 86 1.0 W 46 63 25 34 1008.0 1008.7 1.2
12/05:00am 8.7 0.1 6.5 86 1.1 W 41 63 22 34 1008.4 1009.0 1.2
12/04:47am 8.5 -0.7 6.3 86 1.0 W 44 65 24 35 1008.3 1008.9 1.2
12/04:30am 8.6 -0.4 6.6 87 1.0 W 43 56 23 30 1008.6 1009.2 1.2
12/04:12am 8.5 0.3 6.6 88 0.9 W 39 57 21 31 1008.8 1009.5 1.2
12/04:00am 8.6 0.0 6.7 88 0.9 W 41 54 22 29 1009.0 1009.7 1.2
12/03:30am 8.8 0.7 6.8 87 1.0 W 39 50 21 27 1009.5 1010.2 1.2
12/03:18am 8.9 1.5 6.9 87 1.0 W 35 54 19 29 1010.0 1010.6 1.2
12/03:00am 8.7 2.0 7.2 90 0.7 W 32 50 17 27 1010.2 1010.9 1.2
12/02:59am 8.7 2.0 7.2 90 0.7 W 32 50 17 27 1010.2 1010.9 1.2
12/02:30am 8.8 1.5 7.3 90 0.7 WNW 35 46 19 25 1010.0 1010.6 1.2
12/02:00am 9.1 1.9 7.5 90 0.8 WNW 35 50 19 27 1010.0 1010.6 1.2
12/01:30am 9.2 2.5 7.5 89 0.8 WNW 32 52 17 28 1010.3 1011.0 1.2
12/01:27am 9.2 3.3 7.3 88 0.9 WNW 28 52 15 28 1010.3 1011.0 1.2
12/01:00am 9.4 3.9 7.7 89 0.8 WNW 26 50 14 27 1011.0 1011.7 1.2
12/12:32am 9.3 2.7 7.7 90 0.8 WNW 32 50 17 27 1011.2 1011.9 1.2
12/12:30am 9.2 2.6 7.8 91 0.7 WNW 32 46 17 25 1011.2 1011.9 1.2
12/12:00am 9.2 3.4 7.8 91 0.7 WNW 28 46 15 25 1011.7 1012.4 1.2
 
Date/Time
EST
Temp
°C
App
Temp
°C
Dew
Point
°C
Rel
Hum
%
Delta-T
°C
Wind Press
QNH
hPa
Press
MSL
hPa
Rain since
9am
mm
Dir  Spd
km/h
Gust
km/h
Spd
kts
Gust
kts
11/11:32pm 9.6 3.9 8.4 92 0.6 WNW 28 50 15 27 1012.1 1012.8 1.2
11/11:30pm 9.5 3.8 8.4 93 0.6 WNW 28 39 15 21 1012.1 1012.8 1.2
11/11:00pm 9.6 3.0 8.5 93 0.6 WNW 33 44 18 24 1011.9 1012.6 1.2
11/10:30pm 9.6 2.7 8.7 94 0.5 WNW 35 54 19 29 1011.9 1012.6 1.2
11/10:10pm 9.5 3.5 8.7 95 0.4 WNW 30 48 16 26 1012.0 1012.7 1.2
11/10:01pm 9.5 3.1 8.7 95 0.4 WNW 32 41 17 22 1012.3 1013.0 1.0
11/10:00pm 9.5 3.2 8.9 96 0.3 WNW 32 46 17 25 1012.3 1013.0 1.0
11/09:57pm 9.5 2.9 8.7 95 0.4 WNW 33 48 18 26 1012.3 1013.0 1.0
11/09:43pm 9.3 2.4 8.8 97 0.3 WNW 35 50 19 27 1012.3 1013.0 1.0
11/09:36pm 9.4 3.1 8.8 96 0.3 WNW 32 50 17 27 1012.4 1013.1 0.8
11/09:30pm 9.3 3.3 8.7 96 0.3 WNW 30 41 16 22 1012.7 1013.5 0.6
11/09:00pm 9.4 2.3 8.2 92 0.6 WNW 35 48 19 26 1012.8 1013.6 0.6
11/08:30pm 9.6 3.1 8.0 90 0.8 WNW 32 44 17 24 1013.0 1013.8 0.4
11/08:00pm 9.5 2.9 7.8 89 0.8 WNW 32 43 17 23 1013.6 1014.3 0.2
11/07:47pm 9.5 3.2 7.6 88 0.9 WNW 30 54 16 29 1013.5 1014.2 0.2
11/07:30pm 9.4 3.1 7.3 87 1.0 WNW 30 39 16 21 1013.4 1014.1 0.2
11/07:00pm 9.4 4.6 7.3 87 1.0 WNW 22 30 12 16 1012.5 1013.2 0.2
11/06:30pm 9.3 3.4 7.4 88 0.9 NW 28 39 15 21 1012.6 1013.3 0.2
11/06:00pm 8.9 2.7 7.7 92 0.6 NW 30 39 16 21 1013.5 1014.2 0.2
11/05:30pm 9.0 2.3 7.5 90 0.7 WNW 32 43 17 23 1014.4 1015.2 0.0
11/05:00pm 9.2 1.9 7.3 88 0.9 WNW 35 54 19 29 1014.3 1015.1 0.0
11/04:30pm 9.5 1.9 7.6 88 0.9 WNW 37 52 20 28 1014.0 1014.7 0.0
11/04:00pm 10.0 1.5 7.1 82 1.4 WNW 41 56 22 30 1013.5 1014.2 0.0
11/03:46pm 10.0 2.3 7.3 83 1.3 WNW 37 56 20 30 1013.6 1014.3 0.0
11/03:30pm 10.0 1.6 7.4 84 1.3 WNW 41 57 22 31 1013.3 1014.0 0.0
11/03:04pm 10.2 2.0 6.7 79 1.7 WNW 39 59 21 32 1013.6 1014.3 0.0
11/03:00pm 10.7 2.2 6.8 77 1.9 WNW 41 56 22 30 1013.6 1014.3 0.0
11/02:35pm 10.7 2.5 6.6 76 2.0 WNW 39 57 21 31 1013.8 1014.5 0.0
11/02:30pm 11.0 2.5 6.9 76 2.0 WNW 41 57 22 31 1014.0 1014.7 0.0
11/02:06pm 10.7 2.5 6.5 75 2.0 WNW 39 57 21 31 1014.6 1015.4 0.0
11/02:00pm 10.9 3.1 6.5 74 2.1 WNW 37 52 20 28 1014.6 1015.4 0.0
11/01:30pm 11.4 4.0 6.7 73 2.3 WNW 35 54 19 29 1015.1 1015.8 0.0
11/01:00pm 11.7 4.2 6.4 70 2.6 WNW 35 54 19 29 1015.7 1016.5 0.0
11/12:30pm 11.7 5.1 6.0 68 2.8 WNW 30 54 16 29 1016.4 1017.2 0.0
11/12:00pm 10.7 4.6 5.0 68 2.7 WNW 26 35 14 19 1016.9 1017.7 0.0
11/11:30am 10.1 5.1 4.7 69 2.5 WNW 20 30 11 16 1017.5 1018.3 0.0
11/11:00am 8.8 4.2 3.8 71 2.3 WNW 17 28 9 15 1018.1 1019.0 0.0
11/10:30am 7.8 3.2 3.8 76 1.8 WNW 17 22 9 12 1018.7 1019.5 0.0
11/10:00am 7.3 2.1 3.7 78 1.6 NW 20 24 11 13 1019.3 1020.1 0.0
11/09:30am 6.7 1.1 3.5 80 1.4 NW 22 30 12 16 1019.3 1020.1 0.0
11/09:00am 6.2 -0.1 3.5 83 1.2 NW 26 30 14 16 1019.5 1020.4 0.2
11/08:30am 5.8 0.2 3.5 85 1.0 NW 22 26 12 14 1019.5 1020.4 0.2
11/08:00am 5.7 0.5 3.4 85 1.0 NW 20 28 11 15 1019.4 1020.3 0.2
11/07:30am 5.1 0.0 3.3 88 0.8 NW 19 26 10 14 1020.0 1020.8 0.2
11/07:00am 4.7 0.0 3.0 89 0.7 WNW 17 22 9 12 1020.4 1021.2 0.2
11/06:30am 3.8 -0.6 2.8 93 0.4 NW 15 19 8 10 1020.6 1021.4 0.2
11/06:00am 2.3 -1.6 1.4 94 0.4 NNW 11 15 6 8 1021.0 1021.9 0.0
11/05:30am 2.3 -2.0 1.3 93 0.4 NW 13 17 7 9 1021.3 1022.2 0.0
11/05:00am 1.8 -3.6 1.2 96 0.2 WNW 19 20 10 11 1021.6 1022.4 0.0
11/04:30am 0.9 -3.8 0.8 99 0.0 NW 15 17 8 9 1021.3 1022.2 0.0
11/04:00am -1.1 -3.3 -1.2 99 0.0 CALM 0 0 0 0 1021.4 1022.3 0.0
11/03:30am -1.1 -3.3 -1.2 99 0.0 CALM 0 6 0 3 1021.2 1022.1 0.0
11/03:00am -1.1 -3.3 -1.2 99 0.0 CALM 0 0 0 0 1021.7 1022.5 0.0
11/02:30am -0.5 -2.6 -0.6 99 0.0 CALM 0 0 0 0 1021.8 1022.6 0.0
11/02:00am 0.2 -1.8 -0.1 98 0.1 CALM 0 6 0 3 1022.1 1023.0 0.0
11/01:30am 0.8 -2.4 0.5 98 0.1 NW 7 11 4 6 1022.2 1023.1 0.0
11/01:00am 1.0 -2.6 0.9 99 0.0 NNW 9 9 5 5 1022.3 1023.2 0.0
11/12:30am -0.3 -3.1 -0.4 99 0.0 NW 4 9 2 5 1022.6 1023.5 0.0
11/12:00am -0.5 -3.7 -0.6 99 0.0 WNW 6 7 3 4 1022.6 1023.5 0.0
 
Date/Time
EST
Temp
°C
App
Temp
°C
Dew
Point
°C
Rel
Hum
%
Delta-T
°C
Wind Press
QNH
hPa
Press
MSL
hPa
Rain since
9am
mm
Dir  Spd
km/h
Gust
km/h
Spd
kts
Gust
kts
10/11:30pm 0.0 -2.0 -0.1 99 0.0 CALM 0 0 0 0 1023.1 1024.0 0.0
10/11:00pm -0.4 -2.8 -0.5 99 0.0 WNW 2 7 1 4 1023.1 1024.0 0.0
10/10:30pm -0.2 -2.2 -0.3 99 0.0 CALM 0 0 0 0 1023.1 1024.0 0.0
10/10:00pm 0.0 -2.0 -0.1 99 0.0 CALM 0 0 0 0 1023.3 1024.1 0.0
10/09:30pm 0.5 -1.4 0.4 99 0.0 CALM 0 0 0 0 1023.5 1024.4 0.0

Other formats

Comma delimited format used in spreadsheet applications
http://www.bom.gov.au/fwo/IDN60801/IDN60801.95716.axf

JavaScript Object Notation format (JSON) in row-major order
http://www.bom.gov.au/fwo/IDN60801/IDN60801.95716.json

Data quality

Most of these data are generated automatically and are frequently updated. Quality checks on data are not normally performed. It is possible for incorrect values to appear. Refer to information at About Latest Weather Observations and please check the disclaimer before using these data.